createdAt,value
2023-02-01T00:02:05.044Z,2.22
2023-02-01T00:04:43.855Z,2.24
2023-02-01T00:07:16.380Z,2.26
2023-02-01T00:09:55.009Z,2.28
2023-02-01T00:16:46.409Z,2.27
2023-02-01T00:19:19.375Z,2.29
2023-02-01T00:21:59.003Z,2.27
2023-02-01T00:30:21.282Z,2.19
2023-02-01T00:32:54.318Z,2.15
2023-02-01T00:35:27.100Z,2.14
2023-02-01T00:38:06.414Z,2.13
2023-02-01T00:40:39.057Z,2.13
2023-02-01T00:43:18.139Z,2.12
2023-02-01T00:45:51.143Z,2.10
2023-02-01T00:48:33.371Z,2.10
2023-02-01T00:51:54.848Z,2.09
2023-02-01T00:54:27.481Z,2.09
2023-02-01T00:57:33.787Z,2.10
2023-02-01T01:09:05.864Z,1.99
2023-02-01T01:12:39.228Z,1.98
2023-02-01T01:15:13.293Z,1.97
2023-02-01T01:17:45.839Z,1.97
2023-02-01T01:25:09.094Z,1.95
2023-02-01T01:27:41.576Z,1.93
2023-02-01T01:30:15.211Z,1.93
2023-02-01T01:42:27.716Z,1.90
2023-02-01T02:01:34.420Z,1.79
2023-02-01T02:08:40.138Z,1.80
2023-02-01T02:21:37.102Z,1.82
2023-02-01T02:33:55.790Z,1.84
2023-02-01T03:12:46.541Z,1.94
2023-02-01T03:29:50.586Z,1.96
2023-02-01T03:41:49.911Z,1.99
2023-02-01T03:44:34.764Z,2.00
2023-02-01T03:52:18.419Z,2.00
2023-02-01T03:59:05.664Z,2.02
2023-02-01T04:24:38.932Z,2.02
2023-02-01T04:27:11.456Z,1.99
2023-02-01T04:29:46.744Z,1.98
2023-02-01T04:41:16.722Z,1.93
2023-02-01T04:43:49.953Z,1.93
2023-02-01T04:46:29.486Z,1.91
2023-02-01T04:49:02.064Z,1.88
2023-02-01T04:51:41.398Z,1.85
2023-02-01T04:54:14.282Z,1.88
2023-02-01T05:01:40.394Z,1.86
2023-02-01T05:04:13.301Z,1.84
2023-02-01T05:06:52.290Z,1.83
2023-02-01T05:09:24.755Z,1.83
2023-02-01T05:15:37.525Z,1.76
2023-02-01T05:18:10.226Z,1.73
2023-02-01T05:25:13.029Z,1.78
2023-02-01T05:32:43.566Z,1.86
2023-02-01T05:35:16.074Z,1.90
2023-02-01T05:38:15.048Z,1.90
2023-02-01T05:40:54.380Z,1.87
2023-02-01T05:43:26.882Z,1.84
2023-02-01T05:46:06.724Z,1.80
2023-02-01T05:48:39.241Z,1.75
2023-02-01T05:56:00.261Z,1.76
2023-02-01T06:03:24.063Z,1.80
2023-02-01T06:06:03.181Z,1.84
2023-02-01T06:13:21.655Z,1.93
2023-02-01T06:17:03.380Z,1.97
2023-02-01T06:24:12.108Z,2.07
2023-02-01T06:26:45.045Z,2.11
2023-02-01T06:30:05.714Z,2.12
2023-02-01T06:32:41.400Z,2.14
2023-02-01T06:35:20.290Z,2.16
2023-02-01T06:37:55.110Z,2.17
2023-02-01T06:41:24.121Z,2.19
2023-02-01T06:43:59.711Z,2.23
2023-02-01T06:47:21.040Z,2.27
2023-02-01T06:50:00.122Z,2.28
2023-02-01T06:52:32.923Z,2.32
2023-02-01T07:04:09.118Z,2.38
2023-02-01T07:06:41.766Z,2.40
2023-02-01T07:09:14.867Z,2.43
2023-02-01T07:15:03.650Z,2.49
2023-02-01T07:22:28.694Z,2.48
2023-02-01T07:25:09.007Z,2.51
2023-02-01T07:32:30.712Z,2.56
2023-02-01T07:39:54.424Z,2.58
2023-02-01T07:42:27.013Z,2.58
2023-02-01T07:45:19.051Z,2.57
2023-02-01T07:52:01.836Z,2.58
2023-02-01T07:55:03.992Z,2.58
2023-02-01T07:57:36.582Z,2.58
2023-02-01T08:03:35.272Z,2.60
2023-02-01T08:06:08.794Z,2.64
2023-02-01T08:08:41.677Z,2.67
2023-02-01T08:11:22.037Z,2.68
2023-02-01T08:13:55.418Z,2.72
2023-02-01T08:17:42.003Z,2.72
2023-02-01T08:28:58.468Z,2.69
2023-02-01T08:32:26.998Z,2.62
2023-02-01T08:34:59.643Z,2.59
2023-02-01T08:37:34.125Z,2.59
2023-02-01T08:41:42.581Z,2.63
2023-02-01T08:44:17.919Z,2.60
2023-02-01T08:46:50.454Z,2.58
2023-02-01T08:49:31.206Z,2.56
2023-02-01T08:52:22.217Z,2.65
2023-02-01T08:59:54.815Z,2.80
2023-02-01T09:02:27.402Z,2.86
2023-02-01T09:05:07.863Z,2.89
2023-02-01T09:07:41.031Z,2.94
2023-02-01T09:10:17.246Z,3.00
2023-02-01T09:16:52.068Z,3.06
2023-02-01T09:19:26.936Z,3.07
2023-02-01T09:23:51.015Z,3.07
2023-02-01T09:26:32.158Z,3.08
2023-02-01T09:29:54.559Z,3.05
2023-02-01T09:32:33.846Z,3.06
2023-02-01T09:35:06.788Z,3.07
2023-02-01T09:38:05.693Z,3.11
2023-02-01T09:40:51.027Z,3.11
2023-02-01T09:52:21.006Z,3.38
2023-02-01T09:55:45.767Z,3.57
2023-02-01T09:59:11.407Z,3.67
2023-02-01T10:06:46.157Z,3.71
2023-02-01T10:09:49.039Z,3.75
2023-02-01T10:23:10.324Z,3.83
2023-02-01T10:29:42.928Z,3.95
2023-02-01T10:36:20.479Z,4.06
2023-02-01T10:43:11.847Z,4.19
2023-02-01T10:46:33.878Z,4.26
2023-02-01T10:54:17.542Z,4.35
2023-02-01T10:56:51.535Z,4.36
2023-02-01T10:59:26.490Z,4.41
2023-02-01T11:02:33.800Z,4.38
2023-02-01T11:08:48.417Z,4.40
2023-02-01T11:11:21.200Z,4.38
2023-02-01T11:22:40.027Z,4.51
2023-02-01T11:29:54.238Z,4.06
2023-02-01T11:32:27.530Z,3.95
2023-02-01T11:35:03.693Z,3.95
2023-02-01T11:38:35.811Z,3.89
2023-02-01T11:41:36.521Z,3.89
2023-02-01T11:48:40.184Z,4.04
2023-02-01T11:52:07.614Z,4.12
2023-02-01T11:58:15.285Z,4.26
2023-02-01T12:05:45.264Z,4.32
2023-02-01T12:17:22.141Z,4.52
2023-02-01T12:30:00.326Z,4.65
2023-02-01T12:33:02.638Z,4.57
2023-02-01T12:40:50.298Z,4.45
2023-02-01T12:43:38.639Z,4.39
2023-02-01T12:50:23.761Z,4.23
2023-02-01T12:54:08.292Z,4.19
2023-02-01T13:06:22.460Z,4.10
2023-02-01T13:17:52.163Z,4.00
2023-02-01T13:25:09.456Z,3.98
2023-02-01T13:27:42.141Z,4.00
2023-02-01T13:39:22.733Z,3.76
2023-02-01T13:42:01.280Z,3.65
2023-02-01T14:14:46.024Z,2.97
2023-02-01T14:17:44.890Z,2.95
2023-02-01T14:34:11.150Z,2.64
2023-02-01T14:37:29.119Z,2.64
2023-02-01T14:40:04.199Z,2.64
2023-02-01T14:44:03.478Z,2.67
2023-02-01T14:47:49.958Z,2.70
2023-02-01T14:54:28.166Z,2.68
2023-02-01T14:57:02.461Z,2.68
2023-02-01T14:59:37.845Z,2.72
2023-02-01T15:02:23.927Z,2.73
2023-02-01T15:04:59.681Z,2.72
2023-02-01T15:07:33.039Z,2.70
2023-02-01T15:10:07.557Z,2.68
2023-02-01T15:12:47.821Z,2.67
2023-02-01T15:15:24.037Z,2.67
2023-02-01T15:17:59.847Z,2.65
2023-02-01T15:20:34.332Z,2.66
2023-02-01T15:23:18.775Z,2.64
2023-02-01T15:25:52.994Z,2.61
2023-02-01T15:28:27.224Z,2.60
2023-02-01T15:31:01.994Z,2.59
2023-02-01T15:33:35.032Z,2.62
2023-02-01T15:36:22.284Z,2.62
2023-02-01T15:39:21.452Z,2.61
2023-02-01T15:42:02.364Z,2.61
2023-02-01T15:44:41.655Z,2.60
2023-02-01T15:47:22.700Z,2.61
2023-02-01T15:49:58.141Z,2.63
2023-02-01T15:52:38.611Z,2.62
2023-02-01T15:55:21.475Z,2.63
2023-02-01T15:57:54.834Z,2.64
2023-02-01T16:00:31.048Z,2.67
2023-02-01T16:03:05.884Z,2.69
2023-02-01T16:05:41.517Z,2.71
2023-02-01T16:08:18.328Z,2.72
2023-02-01T16:10:53.559Z,2.73
2023-02-01T16:13:26.350Z,2.75
2023-02-01T16:15:58.843Z,2.78
2023-02-01T16:18:31.429Z,2.80
2023-02-01T16:21:04.075Z,2.78
2023-02-01T16:23:36.558Z,2.81
2023-02-01T16:26:09.422Z,2.83
2023-02-01T16:28:41.975Z,2.85
2023-02-01T16:31:20.493Z,2.85
2023-02-01T16:33:54.554Z,2.85
2023-02-01T16:36:29.302Z,2.85
2023-02-01T16:39:03.988Z,2.89
2023-02-01T16:41:36.913Z,2.92
2023-02-01T16:44:09.485Z,2.93
2023-02-01T16:46:47.415Z,2.94
2023-02-01T16:52:29.243Z,2.95
2023-02-01T16:55:01.665Z,2.95
2023-02-01T16:57:34.820Z,2.93
2023-02-01T17:00:23.634Z,2.88
2023-02-01T17:02:57.593Z,2.85
2023-02-01T17:05:30.888Z,2.84
2023-02-01T17:08:08.211Z,2.82
2023-02-01T17:10:41.009Z,2.79
2023-02-01T17:13:16.662Z,2.75
2023-02-01T17:15:56.637Z,2.72
2023-02-01T17:18:33.158Z,2.71
2023-02-01T17:21:07.796Z,2.70
2023-02-01T17:23:41.076Z,2.70
2023-02-01T17:26:14.099Z,2.72
2023-02-01T17:28:46.803Z,2.73
2023-02-01T17:31:19.997Z,2.74
2023-02-01T17:33:52.581Z,2.73
2023-02-01T17:36:25.059Z,2.72
2023-02-01T17:39:05.831Z,2.69
2023-02-01T17:41:39.073Z,2.68
2023-02-01T17:44:18.980Z,2.67
2023-02-01T17:46:51.574Z,2.67
2023-02-01T17:49:24.219Z,2.66
2023-02-01T17:51:56.879Z,2.63
2023-02-01T17:54:29.343Z,2.60
2023-02-01T17:57:03.921Z,2.57
2023-02-01T17:59:36.368Z,2.55
2023-02-01T18:02:19.499Z,2.52
2023-02-01T18:04:53.187Z,2.53
2023-02-01T18:07:25.656Z,2.55
2023-02-01T18:09:58.195Z,2.55
2023-02-01T18:12:31.958Z,2.57
2023-02-01T18:15:11.140Z,2.56
2023-02-01T18:17:46.503Z,2.54
2023-02-01T18:20:21.602Z,2.56
2023-02-01T18:22:54.341Z,2.57
2023-02-01T18:25:30.111Z,2.57
2023-02-01T18:28:02.631Z,2.59
2023-02-01T18:30:39.131Z,2.61
2023-02-01T18:33:14.988Z,2.65
2023-02-01T18:35:47.801Z,2.68
2023-02-01T18:38:20.333Z,2.70
2023-02-01T18:40:56.480Z,2.74
2023-02-01T18:43:33.487Z,2.78
2023-02-01T18:46:07.391Z,2.82
2023-02-01T18:48:58.739Z,2.85
2023-02-01T18:52:13.634Z,2.85
2023-02-01T18:55:00.031Z,2.83
2023-02-01T18:58:33.026Z,2.79
2023-02-01T19:01:58.345Z,2.73
2023-02-01T19:05:13.223Z,2.66
2023-02-01T19:09:08.623Z,2.58
2023-02-01T19:12:32.384Z,2.56
2023-02-01T19:16:08.838Z,2.56
2023-02-01T19:18:50.857Z,2.54
2023-02-01T19:22:11.928Z,2.55
2023-02-01T19:25:30.882Z,2.55
2023-02-01T19:29:04.752Z,2.54
2023-02-01T19:32:36.861Z,2.54
2023-02-01T19:35:34.819Z,2.54
2023-02-01T19:39:19.681Z,2.51
2023-02-01T19:42:23.834Z,2.46
2023-02-01T19:45:46.539Z,2.42
2023-02-01T19:49:05.718Z,2.36
2023-02-01T19:52:49.826Z,2.29
2023-02-01T19:56:03.121Z,2.27
2023-02-01T19:59:38.619Z,2.26
2023-02-01T20:03:22.213Z,2.27
2023-02-01T20:16:10.274Z,2.31
2023-02-01T20:41:05.496Z,2.30
2023-02-01T20:44:17.136Z,2.31
2023-02-01T21:05:43.002Z,2.16
2023-02-01T21:08:39.295Z,2.17
2023-02-01T21:11:14.133Z,2.13
2023-02-01T21:14:37.225Z,2.06
2023-02-01T21:17:16.262Z,1.98
2023-02-01T21:24:41.991Z,1.92
2023-02-01T21:27:21.161Z,1.90
2023-02-01T21:30:39.243Z,1.94
2023-02-01T21:48:01.614Z,1.87
2023-02-01T21:50:30.925Z,1.81
2023-02-01T21:56:00.605Z,1.82
2023-02-01T21:58:29.853Z,1.76
2023-02-01T22:01:03.231Z,1.73
2023-02-01T22:03:37.717Z,1.71
2023-02-01T22:06:07.692Z,1.69
2023-02-01T22:08:38.277Z,1.69
2023-02-01T22:11:10.411Z,1.67
2023-02-01T22:13:39.653Z,1.66
2023-02-01T22:16:09.304Z,1.66
2023-02-01T22:18:38.648Z,1.66
2023-02-01T22:21:07.918Z,1.66
2023-02-01T22:23:37.318Z,1.64
2023-02-01T22:26:14.369Z,1.65
2023-02-01T22:28:47.321Z,1.66
2023-02-01T22:31:18.162Z,1.66
2023-02-01T22:33:49.380Z,1.67
2023-02-01T22:36:19.340Z,1.67
2023-02-01T22:38:48.602Z,1.68
2023-02-01T22:41:18.255Z,1.70
2023-02-01T22:43:48.153Z,1.71
2023-02-01T22:46:18.853Z,1.73
2023-02-01T22:48:48.771Z,1.76
2023-02-01T22:51:20.405Z,1.79
2023-02-01T22:53:56.470Z,1.82
2023-02-01T22:56:26.871Z,1.85
2023-02-01T22:58:56.886Z,1.86
2023-02-01T23:01:26.798Z,1.86
2023-02-01T23:03:59.056Z,1.87
2023-02-01T23:06:29.765Z,1.87
2023-02-01T23:09:05.385Z,1.86
2023-02-01T23:11:34.719Z,1.87
2023-02-01T23:14:04.426Z,1.86
2023-02-01T23:16:34.300Z,1.85
2023-02-01T23:19:04.023Z,1.84
2023-02-01T23:21:33.601Z,1.83
2023-02-01T23:24:08.413Z,1.82
2023-02-01T23:26:38.727Z,1.82
2023-02-01T23:29:09.968Z,1.85
2023-02-01T23:31:39.497Z,1.86
2023-02-01T23:34:12.338Z,1.86
2023-02-01T23:36:41.731Z,1.84
2023-02-01T23:39:11.183Z,1.77
2023-02-01T23:41:40.371Z,1.69
2023-02-01T23:44:10.017Z,1.62
2023-02-01T23:46:44.058Z,1.60
2023-02-01T23:49:15.188Z,1.59
2023-02-01T23:51:47.029Z,1.56
2023-02-01T23:54:16.591Z,1.55
2023-02-01T23:56:46.953Z,1.54
2023-02-01T23:59:19.193Z,1.53
